Harahan, Louisiana
Current Conditions -  °F | °C
As of 8:53 PM on Friday 24 Oct 2014 (Local Time) from KMSY Reporting Station
Clear Clear  
Wind Chill: 68°   Ceiling: Unl
Heat Index: 68°   Visibility: 10mi
Dew Point: 50°   Wind: 6mph
Humidity: 52%   Direction: 340°NNW
Pressure: 30.09"   Gusts: NA
Location:  29.9536°N, 90.2034°W
Report Text: KMSY 250153Z 34005KT 10SM CLR 20/10 A3009 RMK AO2 SLP191 T02000100
Loading
Personal Weather Stations






























Interactive Weather Map
Tropical Storm Tracking
New forecast layout! Learn more

10-Day Weather Forecast

Advertisements
Track Severe Weather on mobile